sensor_id;sensor_type;location;lat;lon;timestamp;P1;durP1;ratioP1;P2;durP2;ratioP2
13321;SDS011;6730;46.248;6.930;2024-02-26T00:02:22;1.33;;;0.68;;
13321;SDS011;6730;46.248;6.930;2024-02-26T00:04:48;2.65;;;1.35;;
13321;SDS011;6730;46.248;6.930;2024-02-26T00:07:15;1.50;;;0.90;;
13321;SDS011;6730;46.248;6.930;2024-02-26T00:09:40;0.90;;;0.80;;
13321;SDS011;6730;46.248;6.930;2024-02-26T00:12:06;0.60;;;0.60;;
13321;SDS011;6730;46.248;6.930;2024-02-26T00:14:32;1.50;;;1.20;;
13321;SDS011;6730;46.248;6.930;2024-02-26T00:16:58;1.07;;;0.83;;
13321;SDS011;6730;46.248;6.930;2024-02-26T00:19:23;1.43;;;0.97;;
13321;SDS011;6730;46.248;6.930;2024-02-26T00:21:49;1.97;;;1.20;;
13321;SDS011;6730;46.248;6.930;2024-02-26T00:24:15;2.00;;;1.40;;
13321;SDS011;6730;46.248;6.930;2024-02-26T00:26:41;4.07;;;1.33;;
13321;SDS011;6730;46.248;6.930;2024-02-26T00:29:06;1.73;;;1.00;;
13321;SDS011;6730;46.248;6.930;2024-02-26T00:31:32;0.83;;;0.53;;
13321;SDS011;6730;46.248;6.930;2024-02-26T00:33:58;0.70;;;0.70;;
13321;SDS011;6730;46.248;6.930;2024-02-26T00:36:24;0.60;;;0.60;;
13321;SDS011;6730;46.248;6.930;2024-02-26T00:38:49;0.98;;;0.60;;
13321;SDS011;6730;46.248;6.930;2024-02-26T00:41:18;0.50;;;0.50;;
13321;SDS011;6730;46.248;6.930;2024-02-26T00:43:44;0.93;;;0.93;;
13321;SDS011;6730;46.248;6.930;2024-02-26T00:46:10;0.60;;;0.55;;
13321;SDS011;6730;46.248;6.930;2024-02-26T00:48:35;0.50;;;0.40;;
13321;SDS011;6730;46.248;6.930;2024-02-26T00:51:02;0.63;;;0.57;;
13321;SDS011;6730;46.248;6.930;2024-02-26T00:53:30;0.68;;;0.60;;
13321;SDS011;6730;46.248;6.930;2024-02-26T00:55:56;0.40;;;0.40;;
13321;SDS011;6730;46.248;6.930;2024-02-26T00:58:24;1.83;;;1.13;;
13321;SDS011;6730;46.248;6.930;2024-02-26T01:00:50;1.20;;;0.95;;
13321;SDS011;6730;46.248;6.930;2024-02-26T01:03:17;1.38;;;0.88;;
13321;SDS011;6730;46.248;6.930;2024-02-26T01:05:45;0.93;;;0.70;;
13321;SDS011;6730;46.248;6.930;2024-02-26T01:08:11;1.38;;;0.40;;
13321;SDS011;6730;46.248;6.930;2024-02-26T01:10:37;0.68;;;0.47;;
13321;SDS011;6730;46.248;6.930;2024-02-26T01:13:02;1.35;;;0.75;;
13321;SDS011;6730;46.248;6.930;2024-02-26T01:15:28;1.70;;;0.73;;
13321;SDS011;6730;46.248;6.930;2024-02-26T01:17:54;1.43;;;1.17;;
13321;SDS011;6730;46.248;6.930;2024-02-26T01:20:21;1.63;;;1.10;;
13321;SDS011;6730;46.248;6.930;2024-02-26T01:22:47;2.67;;;0.55;;
13321;SDS011;6730;46.248;6.930;2024-02-26T01:25:12;0.60;;;0.60;;
13321;SDS011;6730;46.248;6.930;2024-02-26T01:27:38;2.20;;;0.60;;
13321;SDS011;6730;46.248;6.930;2024-02-26T01:30:06;1.25;;;0.68;;
13321;SDS011;6730;46.248;6.930;2024-02-26T01:32:32;0.40;;;0.30;;
13321;SDS011;6730;46.248;6.930;2024-02-26T01:34:58;0.40;;;0.40;;
13321;SDS011;6730;46.248;6.930;2024-02-26T01:37:24;0.98;;;0.80;;
13321;SDS011;6730;46.248;6.930;2024-02-26T01:39:49;0.45;;;0.40;;
13321;SDS011;6730;46.248;6.930;2024-02-26T01:42:15;0.43;;;0.43;;
13321;SDS011;6730;46.248;6.930;2024-02-26T01:44:41;0.60;;;0.60;;
13321;SDS011;6730;46.248;6.930;2024-02-26T01:47:07;0.40;;;0.40;;
13321;SDS011;6730;46.248;6.930;2024-02-26T01:49:36;0.98;;;0.40;;
13321;SDS011;6730;46.248;6.930;2024-02-26T01:52:02;2.22;;;1.95;;
13321;SDS011;6730;46.248;6.930;2024-02-26T01:54:29;2.42;;;2.05;;
13321;SDS011;6730;46.248;6.930;2024-02-26T01:56:56;4.10;;;3.28;;
13321;SDS011;6730;46.248;6.930;2024-02-26T01:59:22;3.95;;;2.30;;
13321;SDS011;6730;46.248;6.930;2024-02-26T02:01:50;2.58;;;2.28;;
13321;SDS011;6730;46.248;6.930;2024-02-26T02:04:20;0.20;;;0.20;;
13321;SDS011;6730;46.248;6.930;2024-02-26T02:06:47;1.10;;;1.00;;
13321;SDS011;6730;46.248;6.930;2024-02-26T02:09:14;1.00;;;0.90;;
13321;SDS011;6730;46.248;6.930;2024-02-26T02:11:40;0.95;;;0.85;;
13321;SDS011;6730;46.248;6.930;2024-02-26T02:14:06;0.93;;;0.77;;
13321;SDS011;6730;46.248;6.930;2024-02-26T02:16:32;0.28;;;0.28;;
13321;SDS011;6730;46.248;6.930;2024-02-26T02:18:58;0.85;;;0.85;;
13321;SDS011;6730;46.248;6.930;2024-02-26T02:21:24;0.73;;;0.55;;
13321;SDS011;6730;46.248;6.930;2024-02-26T02:23:49;0.60;;;0.47;;
13321;SDS011;6730;46.248;6.930;2024-02-26T02:26:17;0.22;;;0.22;;
13321;SDS011;6730;46.248;6.930;2024-02-26T02:28:43;0.28;;;0.28;;
13321;SDS011;6730;46.248;6.930;2024-02-26T02:31:10;0.38;;;0.30;;
13321;SDS011;6730;46.248;6.930;2024-02-26T02:33:36;0.30;;;0.30;;
13321;SDS011;6730;46.248;6.930;2024-02-26T02:36:02;0.32;;;0.32;;
13321;SDS011;6730;46.248;6.930;2024-02-26T02:38:28;0.30;;;0.30;;
13321;SDS011;6730;46.248;6.930;2024-02-26T02:40:55;0.50;;;0.22;;
13321;SDS011;6730;46.248;6.930;2024-02-26T02:43:21;0.30;;;0.30;;
13321;SDS011;6730;46.248;6.930;2024-02-26T02:45:46;0.30;;;0.30;;
13321;SDS011;6730;46.248;6.930;2024-02-26T02:48:12;0.10;;;0.10;;
13321;SDS011;6730;46.248;6.930;2024-02-26T02:50:38;0.38;;;0.25;;
13321;SDS011;6730;46.248;6.930;2024-02-26T02:53:04;0.20;;;0.20;;
13321;SDS011;6730;46.248;6.930;2024-02-26T02:55:30;0.35;;;0.35;;
13321;SDS011;6730;46.248;6.930;2024-02-26T02:57:55;0.30;;;0.30;;
13321;SDS011;6730;46.248;6.930;2024-02-26T03:00:21;0.30;;;0.30;;
13321;SDS011;6730;46.248;6.930;2024-02-26T03:02:49;0.20;;;0.20;;
13321;SDS011;6730;46.248;6.930;2024-02-26T03:05:15;0.40;;;0.30;;
13321;SDS011;6730;46.248;6.930;2024-02-26T03:07:44;0.10;;;0.10;;
13321;SDS011;6730;46.248;6.930;2024-02-26T03:10:10;0.10;;;0.10;;
13321;SDS011;6730;46.248;6.930;2024-02-26T03:12:35;0.45;;;0.32;;
13321;SDS011;6730;46.248;6.930;2024-02-26T03:15:01;0.15;;;0.10;;
13321;SDS011;6730;46.248;6.930;2024-02-26T03:17:30;0.47;;;0.47;;
13321;SDS011;6730;46.248;6.930;2024-02-26T03:19:56;0.28;;;0.28;;
13321;SDS011;6730;46.248;6.930;2024-02-26T03:22:24;0.65;;;0.40;;
13321;SDS011;6730;46.248;6.930;2024-02-26T03:24:50;0.30;;;0.30;;
13321;SDS011;6730;46.248;6.930;2024-02-26T03:27:16;0.25;;;0.25;;
13321;SDS011;6730;46.248;6.930;2024-02-26T03:29:41;0.20;;;0.20;;
13321;SDS011;6730;46.248;6.930;2024-02-26T03:32:07;0.30;;;0.30;;
13321;SDS011;6730;46.248;6.930;2024-02-26T03:34:33;0.20;;;0.17;;
13321;SDS011;6730;46.248;6.930;2024-02-26T03:37:04;0.90;;;0.30;;
13321;SDS011;6730;46.248;6.930;2024-02-26T03:39:29;0.20;;;0.20;;
13321;SDS011;6730;46.248;6.930;2024-02-26T03:41:55;0.25;;;0.25;;
13321;SDS011;6730;46.248;6.930;2024-02-26T03:44:21;0.10;;;0.10;;
13321;SDS011;6730;46.248;6.930;2024-02-26T03:46:46;0.20;;;0.20;;
13321;SDS011;6730;46.248;6.930;2024-02-26T03:49:12;0.22;;;0.22;;
13321;SDS011;6730;46.248;6.930;2024-02-26T03:51:38;0.50;;;0.50;;
13321;SDS011;6730;46.248;6.930;2024-02-26T03:54:04;0.10;;;0.10;;
13321;SDS011;6730;46.248;6.930;2024-02-26T03:56:30;0.20;;;0.20;;
13321;SDS011;6730;46.248;6.930;2024-02-26T03:58:55;0.13;;;0.13;;
13321;SDS011;6730;46.248;6.930;2024-02-26T04:01:21;0.30;;;0.30;;
13321;SDS011;6730;46.248;6.930;2024-02-26T04:03:47;0.65;;;0.65;;
13321;SDS011;6730;46.248;6.930;2024-02-26T04:06:13;0.40;;;0.40;;
13321;SDS011;6730;46.248;6.930;2024-02-26T04:08:39;0.52;;;0.40;;
13321;SDS011;6730;46.248;6.930;2024-02-26T04:11:06;0.30;;;0.30;;
13321;SDS011;6730;46.248;6.930;2024-02-26T04:13:35;0.10;;;0.10;;
13321;SDS011;6730;46.248;6.930;2024-02-26T04:16:03;0.20;;;0.20;;
13321;SDS011;6730;46.248;6.930;2024-02-26T04:18:30;0.25;;;0.25;;
13321;SDS011;6730;46.248;6.930;2024-02-26T04:20:56;0.20;;;0.20;;
13321;SDS011;6730;46.248;6.930;2024-02-26T04:23:22;0.10;;;0.10;;
13321;SDS011;6730;46.248;6.930;2024-02-26T04:25:48;0.10;;;0.10;;
13321;SDS011;6730;46.248;6.930;2024-02-26T04:28:13;0.17;;;0.17;;
13321;SDS011;6730;46.248;6.930;2024-02-26T04:30:39;0.10;;;0.10;;
13321;SDS011;6730;46.248;6.930;2024-02-26T04:33:05;0.30;;;0.30;;
13321;SDS011;6730;46.248;6.930;2024-02-26T04:35:31;0.00;;;0.00;;
13321;SDS011;6730;46.248;6.930;2024-02-26T04:37:57;0.28;;;0.10;;
13321;SDS011;6730;46.248;6.930;2024-02-26T04:40:23;0.10;;;0.10;;
13321;SDS011;6730;46.248;6.930;2024-02-26T04:42:49;0.20;;;0.20;;
13321;SDS011;6730;46.248;6.930;2024-02-26T04:45:15;0.30;;;0.30;;
13321;SDS011;6730;46.248;6.930;2024-02-26T04:47:40;0.20;;;0.20;;
13321;SDS011;6730;46.248;6.930;2024-02-26T04:50:06;0.40;;;0.40;;
13321;SDS011;6730;46.248;6.930;2024-02-26T04:52:32;0.28;;;0.28;;
13321;SDS011;6730;46.248;6.930;2024-02-26T04:54:58;0.10;;;0.10;;
13321;SDS011;6730;46.248;6.930;2024-02-26T04:57:25;0.20;;;0.20;;
13321;SDS011;6730;46.248;6.930;2024-02-26T04:59:51;0.35;;;0.20;;
13321;SDS011;6730;46.248;6.930;2024-02-26T05:02:17;0.20;;;0.20;;
13321;SDS011;6730;46.248;6.930;2024-02-26T05:04:42;0.15;;;0.15;;
13321;SDS011;6730;46.248;6.930;2024-02-26T05:07:08;0.22;;;0.20;;
13321;SDS011;6730;46.248;6.930;2024-02-26T05:09:34;1.02;;;0.32;;
13321;SDS011;6730;46.248;6.930;2024-02-26T05:12:00;0.20;;;0.20;;
13321;SDS011;6730;46.248;6.930;2024-02-26T05:14:26;0.13;;;0.13;;
13321;SDS011;6730;46.248;6.930;2024-02-26T05:16:52;0.10;;;0.10;;
13321;SDS011;6730;46.248;6.930;2024-02-26T05:19:18;0.10;;;0.10;;
13321;SDS011;6730;46.248;6.930;2024-02-26T05:21:43;1.27;;;0.37;;
13321;SDS011;6730;46.248;6.930;2024-02-26T05:24:09;0.15;;;0.15;;
13321;SDS011;6730;46.248;6.930;2024-02-26T05:26:35;0.00;;;0.00;;
13321;SDS011;6730;46.248;6.930;2024-02-26T05:29:01;0.20;;;0.20;;
13321;SDS011;6730;46.248;6.930;2024-02-26T05:31:26;0.10;;;0.10;;
13321;SDS011;6730;46.248;6.930;2024-02-26T05:33:53;0.10;;;0.10;;
13321;SDS011;6730;46.248;6.930;2024-02-26T05:36:19;0.10;;;0.10;;
13321;SDS011;6730;46.248;6.930;2024-02-26T05:38:47;0.30;;;0.30;;
13321;SDS011;6730;46.248;6.930;2024-02-26T05:41:16;0.20;;;0.20;;
13321;SDS011;6730;46.248;6.930;2024-02-26T05:43:48;0.17;;;0.17;;
13321;SDS011;6730;46.248;6.930;2024-02-26T05:46:17;0.20;;;0.20;;
13321;SDS011;6730;46.248;6.930;2024-02-26T05:48:43;0.00;;;0.00;;
13321;SDS011;6730;46.248;6.930;2024-02-26T05:51:10;0.30;;;0.30;;
13321;SDS011;6730;46.248;6.930;2024-02-26T05:53:35;0.30;;;0.30;;
13321;SDS011;6730;46.248;6.930;2024-02-26T05:56:01;0.30;;;0.30;;
13321;SDS011;6730;46.248;6.930;2024-02-26T05:58:27;0.30;;;0.30;;
13321;SDS011;6730;46.248;6.930;2024-02-26T06:00:52;0.10;;;0.10;;
13321;SDS011;6730;46.248;6.930;2024-02-26T06:03:18;0.10;;;0.10;;
13321;SDS011;6730;46.248;6.930;2024-02-26T06:05:44;0.15;;;0.15;;
13321;SDS011;6730;46.248;6.930;2024-02-26T06:08:09;0.10;;;0.10;;
13321;SDS011;6730;46.248;6.930;2024-02-26T06:10:35;0.13;;;0.13;;
13321;SDS011;6730;46.248;6.930;2024-02-26T06:13:00;0.13;;;0.13;;
13321;SDS011;6730;46.248;6.930;2024-02-26T06:15:26;0.15;;;0.15;;
13321;SDS011;6730;46.248;6.930;2024-02-26T06:17:52;0.10;;;0.10;;
13321;SDS011;6730;46.248;6.930;2024-02-26T06:20:17;0.10;;;0.10;;
13321;SDS011;6730;46.248;6.930;2024-02-26T06:22:43;0.20;;;0.20;;
13321;SDS011;6730;46.248;6.930;2024-02-26T06:25:09;0.10;;;0.10;;
13321;SDS011;6730;46.248;6.930;2024-02-26T06:27:35;0.45;;;0.20;;
13321;SDS011;6730;46.248;6.930;2024-02-26T06:30:01;0.20;;;0.20;;
13321;SDS011;6730;46.248;6.930;2024-02-26T06:32:27;0.10;;;0.10;;
13321;SDS011;6730;46.248;6.930;2024-02-26T06:34:54;0.10;;;0.10;;
13321;SDS011;6730;46.248;6.930;2024-02-26T06:37:19;0.10;;;0.10;;
13321;SDS011;6730;46.248;6.930;2024-02-26T06:39:45;0.00;;;0.00;;
13321;SDS011;6730;46.248;6.930;2024-02-26T06:42:11;0.93;;;0.15;;
13321;SDS011;6730;46.248;6.930;2024-02-26T06:44:37;0.77;;;0.28;;
13321;SDS011;6730;46.248;6.930;2024-02-26T06:47:03;0.17;;;0.17;;
13321;SDS011;6730;46.248;6.930;2024-02-26T06:49:29;0.10;;;0.10;;
13321;SDS011;6730;46.248;6.930;2024-02-26T06:51:54;0.20;;;0.20;;
13321;SDS011;6730;46.248;6.930;2024-02-26T06:54:20;0.00;;;0.00;;
13321;SDS011;6730;46.248;6.930;2024-02-26T06:56:46;0.10;;;0.10;;
13321;SDS011;6730;46.248;6.930;2024-02-26T06:59:12;0.32;;;0.25;;
13321;SDS011;6730;46.248;6.930;2024-02-26T07:01:39;0.22;;;0.22;;
13321;SDS011;6730;46.248;6.930;2024-02-26T07:04:06;0.28;;;0.25;;
13321;SDS011;6730;46.248;6.930;2024-02-26T07:06:32;0.10;;;0.10;;
13321;SDS011;6730;46.248;6.930;2024-02-26T07:08:57;0.32;;;0.32;;
13321;SDS011;6730;46.248;6.930;2024-02-26T07:11:23;0.52;;;0.38;;
13321;SDS011;6730;46.248;6.930;2024-02-26T07:13:48;0.30;;;0.30;;
13321;SDS011;6730;46.248;6.930;2024-02-26T07:16:15;0.20;;;0.20;;
13321;SDS011;6730;46.248;6.930;2024-02-26T07:18:40;0.20;;;0.20;;
13321;SDS011;6730;46.248;6.930;2024-02-26T07:21:08;0.28;;;0.28;;
13321;SDS011;6730;46.248;6.930;2024-02-26T07:23:34;1.17;;;0.28;;
13321;SDS011;6730;46.248;6.930;2024-02-26T07:26:00;0.35;;;0.30;;
13321;SDS011;6730;46.248;6.930;2024-02-26T07:28:25;0.20;;;0.20;;
13321;SDS011;6730;46.248;6.930;2024-02-26T07:30:52;0.20;;;0.20;;
13321;SDS011;6730;46.248;6.930;2024-02-26T07:33:17;0.40;;;0.40;;
13321;SDS011;6730;46.248;6.930;2024-02-26T07:35:43;0.63;;;0.47;;
13321;SDS011;6730;46.248;6.930;2024-02-26T07:38:09;1.20;;;0.90;;
13321;SDS011;6730;46.248;6.930;2024-02-26T07:40:35;1.02;;;0.80;;
13321;SDS011;6730;46.248;6.930;2024-02-26T07:43:01;2.17;;;0.80;;
13321;SDS011;6730;46.248;6.930;2024-02-26T07:45:27;0.40;;;0.40;;
13321;SDS011;6730;46.248;6.930;2024-02-26T07:47:52;0.65;;;0.30;;
13321;SDS011;6730;46.248;6.930;2024-02-26T07:50:18;1.30;;;0.93;;
13321;SDS011;6730;46.248;6.930;2024-02-26T07:52:44;0.30;;;0.30;;
13321;SDS011;6730;46.248;6.930;2024-02-26T07:55:10;0.32;;;0.30;;
13321;SDS011;6730;46.248;6.930;2024-02-26T07:57:36;0.68;;;0.57;;
13321;SDS011;6730;46.248;6.930;2024-02-26T08:00:02;0.65;;;0.63;;
13321;SDS011;6730;46.248;6.930;2024-02-26T08:02:28;2.42;;;2.08;;
13321;SDS011;6730;46.248;6.930;2024-02-26T08:04:54;0.60;;;0.50;;
13321;SDS011;6730;46.248;6.930;2024-02-26T08:07:20;0.55;;;0.52;;
13321;SDS011;6730;46.248;6.930;2024-02-26T08:09:46;1.48;;;1.25;;
13321;SDS011;6730;46.248;6.930;2024-02-26T08:12:12;1.70;;;1.17;;
13321;SDS011;6730;46.248;6.930;2024-02-26T08:14:38;0.70;;;0.70;;
13321;SDS011;6730;46.248;6.930;2024-02-26T08:17:03;0.30;;;0.30;;
13321;SDS011;6730;46.248;6.930;2024-02-26T08:19:29;0.60;;;0.60;;
13321;SDS011;6730;46.248;6.930;2024-02-26T08:21:55;0.17;;;0.17;;
13321;SDS011;6730;46.248;6.930;2024-02-26T08:24:21;0.10;;;0.10;;
13321;SDS011;6730;46.248;6.930;2024-02-26T08:26:46;0.13;;;0.13;;
13321;SDS011;6730;46.248;6.930;2024-02-26T08:29:12;0.52;;;0.35;;
13321;SDS011;6730;46.248;6.930;2024-02-26T08:31:38;2.13;;;0.40;;
13321;SDS011;6730;46.248;6.930;2024-02-26T08:34:04;0.60;;;0.55;;
13321;SDS011;6730;46.248;6.930;2024-02-26T08:36:33;0.20;;;0.20;;
13321;SDS011;6730;46.248;6.930;2024-02-26T08:38:59;1.08;;;0.50;;
13321;SDS011;6730;46.248;6.930;2024-02-26T08:41:25;1.05;;;0.68;;
13321;SDS011;6730;46.248;6.930;2024-02-26T08:43:51;0.55;;;0.40;;
13321;SDS011;6730;46.248;6.930;2024-02-26T08:46:17;1.38;;;0.70;;
13321;SDS011;6730;46.248;6.930;2024-02-26T08:48:43;0.77;;;0.50;;
13321;SDS011;6730;46.248;6.930;2024-02-26T08:51:08;3.50;;;0.88;;
13321;SDS011;6730;46.248;6.930;2024-02-26T08:53:35;0.50;;;0.50;;
13321;SDS011;6730;46.248;6.930;2024-02-26T08:56:01;0.90;;;0.80;;
13321;SDS011;6730;46.248;6.930;2024-02-26T08:58:27;0.22;;;0.22;;
13321;SDS011;6730;46.248;6.930;2024-02-26T09:00:53;0.22;;;0.22;;
13321;SDS011;6730;46.248;6.930;2024-02-26T09:03:19;0.50;;;0.50;;
13321;SDS011;6730;46.248;6.930;2024-02-26T09:05:45;0.98;;;0.60;;
13321;SDS011;6730;46.248;6.930;2024-02-26T09:08:11;0.55;;;0.50;;
13321;SDS011;6730;46.248;6.930;2024-02-26T09:10:37;0.60;;;0.60;;
13321;SDS011;6730;46.248;6.930;2024-02-26T09:13:03;1.88;;;0.93;;
13321;SDS011;6730;46.248;6.930;2024-02-26T09:15:29;0.60;;;0.60;;
13321;SDS011;6730;46.248;6.930;2024-02-26T09:17:55;0.60;;;0.60;;
13321;SDS011;6730;46.248;6.930;2024-02-26T09:20:21;0.38;;;0.38;;
13321;SDS011;6730;46.248;6.930;2024-02-26T09:22:48;0.40;;;0.40;;
13321;SDS011;6730;46.248;6.930;2024-02-26T09:25:15;0.50;;;0.50;;
13321;SDS011;6730;46.248;6.930;2024-02-26T09:27:44;0.38;;;0.38;;
13321;SDS011;6730;46.248;6.930;2024-02-26T09:30:10;0.40;;;0.40;;
13321;SDS011;6730;46.248;6.930;2024-02-26T09:32:37;0.22;;;0.15;;
13321;SDS011;6730;46.248;6.930;2024-02-26T09:35:03;0.30;;;0.30;;
13321;SDS011;6730;46.248;6.930;2024-02-26T09:37:29;0.20;;;0.17;;
13321;SDS011;6730;46.248;6.930;2024-02-26T09:39:55;0.20;;;0.20;;
13321;SDS011;6730;46.248;6.930;2024-02-26T09:42:20;0.20;;;0.20;;
13321;SDS011;6730;46.248;6.930;2024-02-26T09:44:50;0.35;;;0.25;;
13321;SDS011;6730;46.248;6.930;2024-02-26T09:47:19;0.43;;;0.43;;
13321;SDS011;6730;46.248;6.930;2024-02-26T09:49:46;0.32;;;0.30;;
13321;SDS011;6730;46.248;6.930;2024-02-26T09:52:13;0.20;;;0.20;;
13321;SDS011;6730;46.248;6.930;2024-02-26T09:54:40;0.25;;;0.25;;
13321;SDS011;6730;46.248;6.930;2024-02-26T09:57:08;0.20;;;0.20;;
13321;SDS011;6730;46.248;6.930;2024-02-26T09:59:40;0.50;;;0.50;;
13321;SDS011;6730;46.248;6.930;2024-02-26T10:02:11;6.45;;;0.88;;
13321;SDS011;6730;46.248;6.930;2024-02-26T10:04:39;3.38;;;0.40;;
13321;SDS011;6730;46.248;6.930;2024-02-26T10:07:10;0.55;;;0.47;;
13321;SDS011;6730;46.248;6.930;2024-02-26T10:09:37;0.20;;;0.20;;
13321;SDS011;6730;46.248;6.930;2024-02-26T10:12:06;0.10;;;0.10;;
13321;SDS011;6730;46.248;6.930;2024-02-26T10:14:35;0.30;;;0.30;;
13321;SDS011;6730;46.248;6.930;2024-02-26T10:17:01;0.20;;;0.20;;
13321;SDS011;6730;46.248;6.930;2024-02-26T10:19:32;0.25;;;0.25;;
13321;SDS011;6730;46.248;6.930;2024-02-26T10:21:58;0.10;;;0.10;;
13321;SDS011;6730;46.248;6.930;2024-02-26T10:24:25;0.20;;;0.20;;
13321;SDS011;6730;46.248;6.930;2024-02-26T10:26:54;0.15;;;0.15;;
13321;SDS011;6730;46.248;6.930;2024-02-26T10:29:21;0.17;;;0.17;;
13321;SDS011;6730;46.248;6.930;2024-02-26T10:31:47;2.90;;;0.25;;
13321;SDS011;6730;46.248;6.930;2024-02-26T10:34:14;0.25;;;0.25;;
13321;SDS011;6730;46.248;6.930;2024-02-26T10:36:40;0.75;;;0.40;;
13321;SDS011;6730;46.248;6.930;2024-02-26T10:39:06;0.10;;;0.10;;
13321;SDS011;6730;46.248;6.930;2024-02-26T10:41:35;0.77;;;0.40;;
13321;SDS011;6730;46.248;6.930;2024-02-26T10:44:01;0.40;;;0.40;;
13321;SDS011;6730;46.248;6.930;2024-02-26T10:46:27;0.40;;;0.30;;
13321;SDS011;6730;46.248;6.930;2024-02-26T10:48:53;0.63;;;0.30;;
13321;SDS011;6730;46.248;6.930;2024-02-26T10:51:28;0.30;;;0.30;;
13321;SDS011;6730;46.248;6.930;2024-02-26T10:53:58;0.35;;;0.35;;
13321;SDS011;6730;46.248;6.930;2024-02-26T10:56:27;0.82;;;0.20;;
13321;SDS011;6730;46.248;6.930;2024-02-26T10:58:57;0.20;;;0.20;;
13321;SDS011;6730;46.248;6.930;2024-02-26T11:01:24;0.10;;;0.10;;
13321;SDS011;6730;46.248;6.930;2024-02-26T11:03:52;0.43;;;0.25;;
13321;SDS011;6730;46.248;6.930;2024-02-26T11:06:18;0.20;;;0.20;;
13321;SDS011;6730;46.248;6.930;2024-02-26T11:08:52;1.17;;;0.30;;
13321;SDS011;6730;46.248;6.930;2024-02-26T11:11:18;0.30;;;0.30;;
13321;SDS011;6730;46.248;6.930;2024-02-26T11:13:46;0.30;;;0.30;;
13321;SDS011;6730;46.248;6.930;2024-02-26T11:16:19;0.22;;;0.22;;
13321;SDS011;6730;46.248;6.930;2024-02-26T11:18:46;0.30;;;0.30;;
13321;SDS011;6730;46.248;6.930;2024-02-26T11:21:16;0.52;;;0.32;;
13321;SDS011;6730;46.248;6.930;2024-02-26T11:23:52;0.20;;;0.20;;
13321;SDS011;6730;46.248;6.930;2024-02-26T11:26:18;0.30;;;0.30;;
13321;SDS011;6730;46.248;6.930;2024-02-26T11:28:46;0.20;;;0.20;;
13321;SDS011;6730;46.248;6.930;2024-02-26T11:31:13;1.40;;;0.20;;
13321;SDS011;6730;46.248;6.930;2024-02-26T11:33:39;0.30;;;0.30;;
13321;SDS011;6730;46.248;6.930;2024-02-26T11:36:08;0.30;;;0.30;;
13321;SDS011;6730;46.248;6.930;2024-02-26T11:38:35;0.40;;;0.40;;
13321;SDS011;6730;46.248;6.930;2024-02-26T11:41:01;0.50;;;0.40;;
13321;SDS011;6730;46.248;6.930;2024-02-26T11:46:26;0.63;;;0.25;;
13321;SDS011;6730;46.248;6.930;2024-02-26T11:48:58;0.32;;;0.28;;
13321;SDS011;6730;46.248;6.930;2024-02-26T11:51:32;0.22;;;0.22;;
13321;SDS011;6730;46.248;6.930;2024-02-26T11:53:59;0.10;;;0.10;;
13321;SDS011;6730;46.248;6.930;2024-02-26T11:56:25;0.40;;;0.40;;
13321;SDS011;6730;46.248;6.930;2024-02-26T11:59:02;0.40;;;0.40;;
13321;SDS011;6730;46.248;6.930;2024-02-26T12:01:38;0.35;;;0.35;;
13321;SDS011;6730;46.248;6.930;2024-02-26T12:04:07;0.50;;;0.50;;
13321;SDS011;6730;46.248;6.930;2024-02-26T12:06:49;0.73;;;0.50;;
13321;SDS011;6730;46.248;6.930;2024-02-26T12:09:32;0.30;;;0.30;;
13321;SDS011;6730;46.248;6.930;2024-02-26T12:11:59;0.52;;;0.30;;
13321;SDS011;6730;46.248;6.930;2024-02-26T12:14:26;0.65;;;0.50;;
13321;SDS011;6730;46.248;6.930;2024-02-26T12:16:52;0.40;;;0.38;;
13321;SDS011;6730;46.248;6.930;2024-02-26T12:19:20;0.30;;;0.30;;
13321;SDS011;6730;46.248;6.930;2024-02-26T12:21:51;0.93;;;0.47;;
13321;SDS011;6730;46.248;6.930;2024-02-26T12:24:18;0.45;;;0.45;;
13321;SDS011;6730;46.248;6.930;2024-02-26T12:26:45;0.50;;;0.50;;
13321;SDS011;6730;46.248;6.930;2024-02-26T12:29:11;0.57;;;0.57;;
13321;SDS011;6730;46.248;6.930;2024-02-26T12:31:37;0.88;;;0.77;;
13321;SDS011;6730;46.248;6.930;2024-02-26T12:34:04;0.50;;;0.50;;
13321;SDS011;6730;46.248;6.930;2024-02-26T12:36:31;0.60;;;0.60;;
13321;SDS011;6730;46.248;6.930;2024-02-26T12:38:59;1.55;;;0.38;;
13321;SDS011;6730;46.248;6.930;2024-02-26T12:41:25;0.30;;;0.30;;
13321;SDS011;6730;46.248;6.930;2024-02-26T12:43:52;0.57;;;0.57;;
13321;SDS011;6730;46.248;6.930;2024-02-26T12:46:18;0.52;;;0.40;;
13321;SDS011;6730;46.248;6.930;2024-02-26T12:48:46;0.52;;;0.50;;
13321;SDS011;6730;46.248;6.930;2024-02-26T12:51:12;1.70;;;0.40;;
13321;SDS011;6730;46.248;6.930;2024-02-26T12:53:40;0.75;;;0.50;;
13321;SDS011;6730;46.248;6.930;2024-02-26T12:56:07;3.25;;;0.85;;
13321;SDS011;6730;46.248;6.930;2024-02-26T12:58:33;0.40;;;0.40;;
13321;SDS011;6730;46.248;6.930;2024-02-26T13:01:00;0.40;;;0.40;;
13321;SDS011;6730;46.248;6.930;2024-02-26T13:03:27;1.17;;;0.43;;
13321;SDS011;6730;46.248;6.930;2024-02-26T13:05:53;3.53;;;0.68;;
13321;SDS011;6730;46.248;6.930;2024-02-26T13:08:19;0.65;;;0.55;;
13321;SDS011;6730;46.248;6.930;2024-02-26T13:10:46;0.60;;;0.60;;
13321;SDS011;6730;46.248;6.930;2024-02-26T13:13:14;1.05;;;0.50;;
13321;SDS011;6730;46.248;6.930;2024-02-26T13:15:43;0.65;;;0.65;;
13321;SDS011;6730;46.248;6.930;2024-02-26T13:18:09;1.23;;;0.73;;
13321;SDS011;6730;46.248;6.930;2024-02-26T13:20:36;0.40;;;0.40;;
13321;SDS011;6730;46.248;6.930;2024-02-26T13:23:02;0.70;;;0.70;;
13321;SDS011;6730;46.248;6.930;2024-02-26T13:25:29;1.65;;;0.60;;
13321;SDS011;6730;46.248;6.930;2024-02-26T13:30:41;0.80;;;0.65;;
13321;SDS011;6730;46.248;6.930;2024-02-26T13:33:14;1.35;;;0.30;;
13321;SDS011;6730;46.248;6.930;2024-02-26T13:35:41;0.40;;;0.40;;
13321;SDS011;6730;46.248;6.930;2024-02-26T13:38:06;1.58;;;0.50;;
13321;SDS011;6730;46.248;6.930;2024-02-26T13:40:32;0.40;;;0.40;;
13321;SDS011;6730;46.248;6.930;2024-02-26T13:42:59;0.30;;;0.30;;
13321;SDS011;6730;46.248;6.930;2024-02-26T13:45:25;1.63;;;0.45;;
13321;SDS011;6730;46.248;6.930;2024-02-26T13:47:51;0.30;;;0.30;;
13321;SDS011;6730;46.248;6.930;2024-02-26T13:50:16;0.50;;;0.47;;
13321;SDS011;6730;46.248;6.930;2024-02-26T13:52:46;0.50;;;0.50;;
13321;SDS011;6730;46.248;6.930;2024-02-26T13:55:12;0.77;;;0.60;;
13321;SDS011;6730;46.248;6.930;2024-02-26T13:57:39;0.50;;;0.50;;
13321;SDS011;6730;46.248;6.930;2024-02-26T14:00:05;1.15;;;0.70;;
13321;SDS011;6730;46.248;6.930;2024-02-26T14:02:33;0.50;;;0.50;;
13321;SDS011;6730;46.248;6.930;2024-02-26T14:05:01;0.60;;;0.50;;
13321;SDS011;6730;46.248;6.930;2024-02-26T14:07:29;0.50;;;0.50;;
13321;SDS011;6730;46.248;6.930;2024-02-26T14:09:57;0.32;;;0.30;;
13321;SDS011;6730;46.248;6.930;2024-02-26T14:12:23;1.67;;;1.27;;
13321;SDS011;6730;46.248;6.930;2024-02-26T14:14:48;1.75;;;1.40;;
13321;SDS011;6730;46.248;6.930;2024-02-26T14:17:14;1.08;;;0.82;;
13321;SDS011;6730;46.248;6.930;2024-02-26T14:19:40;1.48;;;1.10;;
13321;SDS011;6730;46.248;6.930;2024-02-26T14:22:10;0.60;;;0.60;;
13321;SDS011;6730;46.248;6.930;2024-02-26T14:24:36;0.35;;;0.35;;
13321;SDS011;6730;46.248;6.930;2024-02-26T14:27:02;1.48;;;0.60;;
13321;SDS011;6730;46.248;6.930;2024-02-26T14:29:28;1.08;;;0.70;;
13321;SDS011;6730;46.248;6.930;2024-02-26T14:31:54;0.70;;;0.70;;
13321;SDS011;6730;46.248;6.930;2024-02-26T14:34:21;0.50;;;0.50;;
13321;SDS011;6730;46.248;6.930;2024-02-26T14:36:47;0.75;;;0.60;;
13321;SDS011;6730;46.248;6.930;2024-02-26T14:39:13;0.47;;;0.47;;
13321;SDS011;6730;46.248;6.930;2024-02-26T14:41:39;0.25;;;0.25;;
13321;SDS011;6730;46.248;6.930;2024-02-26T14:44:05;3.13;;;0.50;;
13321;SDS011;6730;46.248;6.930;2024-02-26T14:46:30;0.40;;;0.40;;
13321;SDS011;6730;46.248;6.930;2024-02-26T14:48:56;0.30;;;0.30;;
13321;SDS011;6730;46.248;6.930;2024-02-26T14:51:23;1.17;;;0.32;;
13321;SDS011;6730;46.248;6.930;2024-02-26T14:53:48;0.40;;;0.40;;
13321;SDS011;6730;46.248;6.930;2024-02-26T14:56:14;0.65;;;0.43;;
13321;SDS011;6730;46.248;6.930;2024-02-26T14:58:40;0.50;;;0.50;;
13321;SDS011;6730;46.248;6.930;2024-02-26T15:01:05;0.30;;;0.30;;
13321;SDS011;6730;46.248;6.930;2024-02-26T15:03:32;0.30;;;0.30;;